sensor_id;sensor_type;location;lat;lon;timestamp;P1;durP1;ratioP1;P2;durP2;ratioP2
25649;SDS011;13505;45.196;5.696;2022-12-18T05:04:38;20.45;;;9.07;;
25649;SDS011;13505;45.196;5.696;2022-12-18T05:09:30;16.05;;;8.13;;
25649;SDS011;13505;45.196;5.696;2022-12-18T05:14:20;23.25;;;9.63;;
25649;SDS011;13505;45.196;5.696;2022-12-18T05:19:11;18.23;;;9.48;;
25649;SDS011;13505;45.196;5.696;2022-12-18T05:24:01;17.60;;;9.40;;
25649;SDS011;13505;45.196;5.696;2022-12-18T05:28:51;20.33;;;10.00;;
25649;SDS011;13505;45.196;5.696;2022-12-18T05:33:42;17.10;;;8.75;;
25649;SDS011;13505;45.196;5.696;2022-12-18T05:38:33;16.60;;;9.15;;
25649;SDS011;13505;45.196;5.696;2022-12-18T05:43:26;18.17;;;8.43;;
25649;SDS011;13505;45.196;5.696;2022-12-18T05:48:17;16.50;;;8.65;;
25649;SDS011;13505;45.196;5.696;2022-12-18T05:53:08;15.85;;;7.78;;
25649;SDS011;13505;45.196;5.696;2022-12-18T05:57:58;16.15;;;8.50;;
25649;SDS011;13505;45.196;5.696;2022-12-18T06:02:49;19.92;;;9.07;;
25649;SDS011;13505;45.196;5.696;2022-12-18T06:07:39;21.35;;;9.38;;
25649;SDS011;13505;45.196;5.696;2022-12-18T06:12:30;16.88;;;8.48;;
25649;SDS011;13505;45.196;5.696;2022-12-18T06:17:20;16.23;;;8.35;;
25649;SDS011;13505;45.196;5.696;2022-12-18T06:22:11;15.48;;;7.85;;
25649;SDS011;13505;45.196;5.696;2022-12-18T06:27:01;16.45;;;8.95;;
25649;SDS011;13505;45.196;5.696;2022-12-18T06:31:52;19.10;;;8.73;;
25649;SDS011;13505;45.196;5.696;2022-12-18T06:36:42;22.05;;;10.30;;
25649;SDS011;13505;45.196;5.696;2022-12-18T06:41:32;19.45;;;9.85;;
25649;SDS011;13505;45.196;5.696;2022-12-18T06:46:23;22.05;;;9.80;;
25649;SDS011;13505;45.196;5.696;2022-12-18T06:51:15;24.58;;;11.38;;
25649;SDS011;13505;45.196;5.696;2022-12-18T06:56:09;24.58;;;11.73;;
25649;SDS011;13505;45.196;5.696;2022-12-18T07:01:04;22.70;;;11.70;;
25649;SDS011;13505;45.196;5.696;2022-12-18T07:05:55;27.33;;;12.25;;
25649;SDS011;13505;45.196;5.696;2022-12-18T07:10:46;24.90;;;10.98;;
25649;SDS011;13505;45.196;5.696;2022-12-18T07:15:38;28.33;;;12.75;;
25649;SDS011;13505;45.196;5.696;2022-12-18T07:20:29;29.83;;;12.52;;
25649;SDS011;13505;45.196;5.696;2022-12-18T07:25:19;22.25;;;10.43;;
25649;SDS011;13505;45.196;5.696;2022-12-18T07:30:10;19.08;;;9.23;;
25649;SDS011;13505;45.196;5.696;2022-12-18T07:35:00;16.80;;;8.65;;
25649;SDS011;13505;45.196;5.696;2022-12-18T07:39:51;16.92;;;8.80;;
25649;SDS011;13505;45.196;5.696;2022-12-18T07:44:41;19.85;;;9.32;;
25649;SDS011;13505;45.196;5.696;2022-12-18T07:49:32;17.25;;;8.40;;
25649;SDS011;13505;45.196;5.696;2022-12-18T07:54:23;22.60;;;9.10;;
25649;SDS011;13505;45.196;5.696;2022-12-18T07:59:14;20.45;;;9.10;;
25649;SDS011;13505;45.196;5.696;2022-12-18T08:04:04;17.10;;;9.20;;
25649;SDS011;13505;45.196;5.696;2022-12-18T08:08:55;19.15;;;9.85;;
25649;SDS011;13505;45.196;5.696;2022-12-18T08:13:46;18.05;;;8.68;;
25649;SDS011;13505;45.196;5.696;2022-12-18T08:18:36;17.77;;;8.90;;
25649;SDS011;13505;45.196;5.696;2022-12-18T08:23:27;18.52;;;9.50;;
25649;SDS011;13505;45.196;5.696;2022-12-18T08:28:17;19.27;;;9.90;;
25649;SDS011;13505;45.196;5.696;2022-12-18T08:33:08;18.20;;;9.70;;
25649;SDS011;13505;45.196;5.696;2022-12-18T08:37:58;18.15;;;9.27;;
25649;SDS011;13505;45.196;5.696;2022-12-18T08:42:48;20.60;;;9.90;;
25649;SDS011;13505;45.196;5.696;2022-12-18T08:47:57;19.73;;;10.00;;
25649;SDS011;13505;45.196;5.696;2022-12-18T08:52:47;23.30;;;10.53;;
25649;SDS011;13505;45.196;5.696;2022-12-18T08:57:38;22.92;;;9.55;;
25649;SDS011;13505;45.196;5.696;2022-12-18T09:02:28;19.25;;;9.20;;
25649;SDS011;13505;45.196;5.696;2022-12-18T09:07:18;21.10;;;10.38;;
25649;SDS011;13505;45.196;5.696;2022-12-18T09:12:08;21.80;;;11.35;;
25649;SDS011;13505;45.196;5.696;2022-12-18T09:16:59;24.25;;;11.80;;
25649;SDS011;13505;45.196;5.696;2022-12-18T09:21:49;25.83;;;13.48;;
25649;SDS011;13505;45.196;5.696;2022-12-18T09:26:39;28.30;;;14.60;;
25649;SDS011;13505;45.196;5.696;2022-12-18T09:31:30;21.73;;;11.90;;
25649;SDS011;13505;45.196;5.696;2022-12-18T09:36:20;29.42;;;12.57;;
25649;SDS011;13505;45.196;5.696;2022-12-18T09:41:26;25.13;;;12.40;;
25649;SDS011;13505;45.196;5.696;2022-12-18T09:46:38;26.20;;;12.60;;
25649;SDS011;13505;45.196;5.696;2022-12-18T09:51:37;22.60;;;12.23;;
25649;SDS011;13505;45.196;5.696;2022-12-18T09:56:34;25.38;;;12.30;;
25649;SDS011;13505;45.196;5.696;2022-12-18T10:01:28;24.98;;;11.98;;
25649;SDS011;13505;45.196;5.696;2022-12-18T10:16:41;23.67;;;11.50;;
25649;SDS011;13505;45.196;5.696;2022-12-18T10:22:01;25.80;;;12.05;;
25649;SDS011;13505;45.196;5.696;2022-12-18T10:27:08;26.95;;;13.27;;
25649;SDS011;13505;45.196;5.696;2022-12-18T10:32:03;22.55;;;11.90;;
25649;SDS011;13505;45.196;5.696;2022-12-18T10:36:54;27.77;;;12.82;;
25649;SDS011;13505;45.196;5.696;2022-12-18T10:41:44;21.48;;;11.68;;
25649;SDS011;13505;45.196;5.696;2022-12-18T10:46:35;21.30;;;12.32;;
25649;SDS011;13505;45.196;5.696;2022-12-18T10:56:27;22.05;;;11.85;;
25649;SDS011;13505;45.196;5.696;2022-12-18T11:01:20;25.95;;;12.40;;
25649;SDS011;13505;45.196;5.696;2022-12-18T11:06:18;21.13;;;11.52;;
25649;SDS011;13505;45.196;5.696;2022-12-18T11:11:23;23.25;;;11.85;;
25649;SDS011;13505;45.196;5.696;2022-12-18T11:16:18;21.15;;;10.55;;
25649;SDS011;13505;45.196;5.696;2022-12-18T11:21:10;21.77;;;10.43;;
25649;SDS011;13505;45.196;5.696;2022-12-18T11:26:03;20.13;;;9.63;;
25649;SDS011;13505;45.196;5.696;2022-12-18T11:36:21;18.25;;;9.77;;
25649;SDS011;13505;45.196;5.696;2022-12-18T11:46:18;17.90;;;8.65;;
25649;SDS011;13505;45.196;5.696;2022-12-18T11:51:20;15.30;;;7.07;;
25649;SDS011;13505;45.196;5.696;2022-12-18T11:56:36;11.77;;;6.38;;
25649;SDS011;13505;45.196;5.696;2022-12-18T12:01:36;17.50;;;8.15;;
25649;SDS011;13505;45.196;5.696;2022-12-18T12:12:16;15.63;;;8.35;;
25649;SDS011;13505;45.196;5.696;2022-12-18T12:27:26;15.23;;;7.57;;
25649;SDS011;13505;45.196;5.696;2022-12-18T12:38:46;21.42;;;11.57;;
25649;SDS011;13505;45.196;5.696;2022-12-18T12:53:38;21.60;;;11.32;;
25649;SDS011;13505;45.196;5.696;2022-12-18T12:58:32;21.90;;;10.70;;
25649;SDS011;13505;45.196;5.696;2022-12-18T13:08:34;18.92;;;10.25;;
25649;SDS011;13505;45.196;5.696;2022-12-18T13:13:53;20.15;;;10.38;;
25649;SDS011;13505;45.196;5.696;2022-12-18T13:18:49;19.73;;;9.60;;
25649;SDS011;13505;45.196;5.696;2022-12-18T13:23:41;16.50;;;9.00;;
25649;SDS011;13505;45.196;5.696;2022-12-18T13:33:44;15.85;;;9.35;;
25649;SDS011;13505;45.196;5.696;2022-12-18T13:38:36;15.35;;;7.47;;
25649;SDS011;13505;45.196;5.696;2022-12-18T13:48:31;15.93;;;9.52;;
25649;SDS011;13505;45.196;5.696;2022-12-18T13:53:28;15.75;;;8.60;;
25649;SDS011;13505;45.196;5.696;2022-12-18T13:58:22;15.38;;;9.00;;
25649;SDS011;13505;45.196;5.696;2022-12-18T14:03:23;15.07;;;8.27;;
25649;SDS011;13505;45.196;5.696;2022-12-18T14:08:16;20.52;;;9.27;;
25649;SDS011;13505;45.196;5.696;2022-12-18T14:13:07;18.88;;;9.90;;
25649;SDS011;13505;45.196;5.696;2022-12-18T14:28:27;16.75;;;7.93;;
25649;SDS011;13505;45.196;5.696;2022-12-18T14:33:25;16.42;;;7.65;;
25649;SDS011;13505;45.196;5.696;2022-12-18T14:38:22;17.17;;;8.23;;
25649;SDS011;13505;45.196;5.696;2022-12-18T14:43:23;12.30;;;6.53;;
25649;SDS011;13505;45.196;5.696;2022-12-18T14:53:54;12.68;;;6.90;;
25649;SDS011;13505;45.196;5.696;2022-12-18T14:58:26;14.18;;;6.38;;
25649;SDS011;13505;45.196;5.696;2022-12-18T15:03:18;11.35;;;6.22;;
25649;SDS011;13505;45.196;5.696;2022-12-18T15:08:24;14.55;;;7.50;;
25649;SDS011;13505;45.196;5.696;2022-12-18T15:13:22;16.90;;;7.82;;
25649;SDS011;13505;45.196;5.696;2022-12-18T15:18:15;14.82;;;8.05;;
25649;SDS011;13505;45.196;5.696;2022-12-18T15:23:35;15.25;;;7.95;;
25649;SDS011;13505;45.196;5.696;2022-12-18T15:28:35;14.60;;;8.52;;
25649;SDS011;13505;45.196;5.696;2022-12-18T15:33:27;15.35;;;8.50;;
25649;SDS011;13505;45.196;5.696;2022-12-18T15:38:21;15.77;;;8.70;;
25649;SDS011;13505;45.196;5.696;2022-12-18T15:43:11;20.80;;;9.48;;
25649;SDS011;13505;45.196;5.696;2022-12-18T15:48:21;17.25;;;9.13;;
25649;SDS011;13505;45.196;5.696;2022-12-18T15:53:12;17.42;;;9.50;;
25649;SDS011;13505;45.196;5.696;2022-12-18T15:58:03;17.58;;;9.05;;
25649;SDS011;13505;45.196;5.696;2022-12-18T16:02:54;22.58;;;10.95;;
25649;SDS011;13505;45.196;5.696;2022-12-18T16:07:45;25.90;;;12.85;;
25649;SDS011;13505;45.196;5.696;2022-12-18T16:12:36;22.05;;;12.60;;
25649;SDS011;13505;45.196;5.696;2022-12-18T16:17:27;20.08;;;10.68;;
25649;SDS011;13505;45.196;5.696;2022-12-18T16:22:18;20.45;;;10.95;;
25649;SDS011;13505;45.196;5.696;2022-12-18T16:27:11;18.67;;;9.75;;
25649;SDS011;13505;45.196;5.696;2022-12-18T16:32:01;16.95;;;8.57;;
25649;SDS011;13505;45.196;5.696;2022-12-18T16:36:52;19.60;;;10.13;;
25649;SDS011;13505;45.196;5.696;2022-12-18T16:41:46;14.75;;;8.20;;
25649;SDS011;13505;45.196;5.696;2022-12-18T16:46:37;22.05;;;10.43;;
25649;SDS011;13505;45.196;5.696;2022-12-18T16:51:27;24.60;;;11.82;;
25649;SDS011;13505;45.196;5.696;2022-12-18T16:56:18;19.73;;;11.23;;
25649;SDS011;13505;45.196;5.696;2022-12-18T17:01:09;17.98;;;9.95;;
25649;SDS011;13505;45.196;5.696;2022-12-18T17:06:04;20.17;;;10.65;;
25649;SDS011;13505;45.196;5.696;2022-12-18T17:10:55;22.25;;;11.55;;
25649;SDS011;13505;45.196;5.696;2022-12-18T17:15:45;24.05;;;12.48;;
25649;SDS011;13505;45.196;5.696;2022-12-18T17:20:35;27.60;;;13.52;;
25649;SDS011;13505;45.196;5.696;2022-12-18T17:25:26;30.35;;;13.90;;
25649;SDS011;13505;45.196;5.696;2022-12-18T17:30:16;27.27;;;12.85;;
25649;SDS011;13505;45.196;5.696;2022-12-18T17:35:06;25.77;;;12.38;;
25649;SDS011;13505;45.196;5.696;2022-12-18T17:39:57;25.60;;;11.77;;
25649;SDS011;13505;45.196;5.696;2022-12-18T17:44:48;26.00;;;12.63;;
25649;SDS011;13505;45.196;5.696;2022-12-18T17:49:38;25.35;;;12.75;;
25649;SDS011;13505;45.196;5.696;2022-12-18T17:54:28;24.38;;;12.85;;
25649;SDS011;13505;45.196;5.696;2022-12-18T17:59:19;27.92;;;12.65;;
25649;SDS011;13505;45.196;5.696;2022-12-18T18:04:09;22.65;;;11.27;;
25649;SDS011;13505;45.196;5.696;2022-12-18T18:09:00;18.13;;;10.60;;
25649;SDS011;13505;45.196;5.696;2022-12-18T18:13:50;20.77;;;10.83;;
25649;SDS011;13505;45.196;5.696;2022-12-18T18:18:49;24.92;;;11.93;;
25649;SDS011;13505;45.196;5.696;2022-12-18T18:23:40;21.60;;;10.85;;
25649;SDS011;13505;45.196;5.696;2022-12-18T18:28:30;24.20;;;12.17;;
25649;SDS011;13505;45.196;5.696;2022-12-18T18:33:21;19.33;;;10.95;;
25649;SDS011;13505;45.196;5.696;2022-12-18T18:38:11;20.67;;;11.20;;
25649;SDS011;13505;45.196;5.696;2022-12-18T18:43:02;20.35;;;10.80;;
25649;SDS011;13505;45.196;5.696;2022-12-18T18:47:52;22.85;;;11.55;;
25649;SDS011;13505;45.196;5.696;2022-12-18T18:52:42;21.53;;;11.30;;
25649;SDS011;13505;45.196;5.696;2022-12-18T18:57:33;27.90;;;11.63;;
25649;SDS011;13505;45.196;5.696;2022-12-18T19:02:23;24.88;;;12.90;;
25649;SDS011;13505;45.196;5.696;2022-12-18T19:07:14;29.38;;;12.55;;
25649;SDS011;13505;45.196;5.696;2022-12-18T19:12:05;28.75;;;14.25;;
25649;SDS011;13505;45.196;5.696;2022-12-18T19:17:14;25.80;;;13.18;;
25649;SDS011;13505;45.196;5.696;2022-12-18T19:22:05;26.45;;;12.35;;
25649;SDS011;13505;45.196;5.696;2022-12-18T19:26:55;23.80;;;11.80;;
25649;SDS011;13505;45.196;5.696;2022-12-18T19:31:45;21.42;;;10.80;;
25649;SDS011;13505;45.196;5.696;2022-12-18T19:36:37;21.52;;;11.27;;
25649;SDS011;13505;45.196;5.696;2022-12-18T19:41:28;17.27;;;10.13;;
25649;SDS011;13505;45.196;5.696;2022-12-18T19:46:20;22.10;;;10.02;;
25649;SDS011;13505;45.196;5.696;2022-12-18T19:51:15;19.95;;;10.65;;
25649;SDS011;13505;45.196;5.696;2022-12-18T19:56:14;22.48;;;11.15;;
25649;SDS011;13505;45.196;5.696;2022-12-18T20:01:09;24.75;;;12.02;;
25649;SDS011;13505;45.196;5.696;2022-12-18T20:06:10;23.90;;;11.93;;
25649;SDS011;13505;45.196;5.696;2022-12-18T20:11:03;22.23;;;12.13;;
25649;SDS011;13505;45.196;5.696;2022-12-18T20:15:53;26.67;;;12.55;;
25649;SDS011;13505;45.196;5.696;2022-12-18T20:20:44;27.60;;;14.37;;
25649;SDS011;13505;45.196;5.696;2022-12-18T20:25:34;29.55;;;15.60;;
25649;SDS011;13505;45.196;5.696;2022-12-18T20:30:25;29.05;;;16.25;;
25649;SDS011;13505;45.196;5.696;2022-12-18T20:35:15;25.45;;;14.55;;
25649;SDS011;13505;45.196;5.696;2022-12-18T20:40:06;32.92;;;16.35;;
25649;SDS011;13505;45.196;5.696;2022-12-18T20:44:57;41.38;;;18.83;;
25649;SDS011;13505;45.196;5.696;2022-12-18T20:49:47;42.07;;;17.93;;
25649;SDS011;13505;45.196;5.696;2022-12-18T20:54:38;38.53;;;17.17;;
25649;SDS011;13505;45.196;5.696;2022-12-18T20:59:28;37.38;;;16.88;;
25649;SDS011;13505;45.196;5.696;2022-12-18T21:04:19;27.67;;;14.13;;
25649;SDS011;13505;45.196;5.696;2022-12-18T21:09:10;30.13;;;13.93;;
25649;SDS011;13505;45.196;5.696;2022-12-18T21:14:01;30.83;;;13.30;;
25649;SDS011;13505;45.196;5.696;2022-12-18T21:18:52;32.75;;;15.07;;
25649;SDS011;13505;45.196;5.696;2022-12-18T21:23:43;29.92;;;13.95;;
25649;SDS011;13505;45.196;5.696;2022-12-18T21:28:33;29.95;;;14.15;;
25649;SDS011;13505;45.196;5.696;2022-12-18T21:33:23;35.13;;;16.50;;
25649;SDS011;13505;45.196;5.696;2022-12-18T21:38:14;26.70;;;14.50;;
25649;SDS011;13505;45.196;5.696;2022-12-18T21:43:04;29.40;;;14.47;;
25649;SDS011;13505;45.196;5.696;2022-12-18T21:48:32;28.13;;;13.40;;
25649;SDS011;13505;45.196;5.696;2022-12-18T21:53:23;25.80;;;13.50;;
25649;SDS011;13505;45.196;5.696;2022-12-18T21:58:13;29.75;;;14.55;;
25649;SDS011;13505;45.196;5.696;2022-12-18T22:03:03;25.27;;;12.50;;
25649;SDS011;13505;45.196;5.696;2022-12-18T22:07:54;25.02;;;12.85;;
25649;SDS011;13505;45.196;5.696;2022-12-18T22:12:45;25.65;;;12.88;;
25649;SDS011;13505;45.196;5.696;2022-12-18T22:17:35;29.52;;;13.80;;
25649;SDS011;13505;45.196;5.696;2022-12-18T22:22:25;26.73;;;14.10;;
25649;SDS011;13505;45.196;5.696;2022-12-18T22:27:16;28.30;;;14.57;;
25649;SDS011;13505;45.196;5.696;2022-12-18T22:32:07;24.92;;;13.77;;
25649;SDS011;13505;45.196;5.696;2022-12-18T22:36:59;25.52;;;11.88;;
25649;SDS011;13505;45.196;5.696;2022-12-18T22:41:50;21.38;;;11.05;;
25649;SDS011;13505;45.196;5.696;2022-12-18T22:46:41;20.38;;;10.73;;
25649;SDS011;13505;45.196;5.696;2022-12-18T22:51:35;22.23;;;11.10;;
25649;SDS011;13505;45.196;5.696;2022-12-18T22:56:25;20.10;;;9.73;;
